Kasaba Bay Airport


Codes: FLKY/ZKB
Name: Kasaba Bay Airport
City: Kasaba Bay
Country: Zambia
Elevation: 2780 ft.

Photos at Kasaba Bay Airport


   Photos courtesy of SpottingLog. You can add your own sightings and photos by signing up for a free trial today.



No photos found.

Weather at Kasaba Bay Airport


Time (UTC)DescriptionTempratureWindCloud coverageVisibilityPressureHumidity
18-Apr-2024 00:00Scattered Clouds23°C11 mph, SE49%10000m1014hPa78%
18-Apr-2024 03:00Scattered Clouds23°C9 mph, SE50%10000m1014hPa77%
18-Apr-2024 06:00Scattered Clouds24°C7 mph, SE38%10000m1015hPa75%
18-Apr-2024 09:00Clear Sky26°C4 mph, E5%10000m1014hPa62%
18-Apr-2024 12:00Light Rain27°C4 mph, NW28%10000m1012hPa65%
18-Apr-2024 15:00Light Rain26°C2 mph, NE99%10000m1012hPa71%
18-Apr-2024 18:00Light Rain24°C2 mph, SE78%10000m1014hPa77%
18-Apr-2024 21:00Light Rain24°C7 mph, S97%10000m1014hPa79%
19-Apr-2024 00:00Light Rain23°C7 mph, S97%10000m1013hPa79%
19-Apr-2024 03:00Broken Clouds22°C7 mph, S66%10000m1013hPa79%
19-Apr-2024 06:00Broken Clouds24°C7 mph, SE82%10000m1015hPa76%
19-Apr-2024 09:00Broken Clouds26°C4 mph, E73%10000m1013hPa65%
19-Apr-2024 12:00Broken Clouds26°C4 mph, E73%10000m1010hPa66%
19-Apr-2024 15:00Light Rain26°C0 mph, W100%10000m1010hPa69%
19-Apr-2024 18:00Light Rain24°C2 mph, SW92%10000m1012hPa74%
19-Apr-2024 21:00Light Rain23°C4 mph, SE84%10000m1013hPa81%
20-Apr-2024 00:00Light Rain23°C7 mph, S71%10000m1012hPa80%
20-Apr-2024 03:00Light Rain22°C4 mph, S73%10000m1012hPa80%
20-Apr-2024 06:00Broken Clouds24°C4 mph, S77%10000m1013hPa77%
20-Apr-2024 09:00Light Rain26°C2 mph, E74%10000m1012hPa66%
20-Apr-2024 12:00Light Rain26°C4 mph, N86%10000m1009hPa67%
20-Apr-2024 15:00Light Rain26°C2 mph, NE85%10000m1009hPa68%
20-Apr-2024 18:00Light Rain24°C4 mph, S85%10000m1012hPa75%
20-Apr-2024 21:00Light Rain23°C4 mph, S98%9345m1012hPa83%
21-Apr-2024 00:00Light Rain23°C4 mph, S94%10000m1010hPa82%
21-Apr-2024 03:00Light Rain23°C4 mph, S100%10000m1011hPa81%
21-Apr-2024 06:00Overcast Clouds24°C4 mph, SE93%10000m1013hPa78%
21-Apr-2024 09:00Broken Clouds26°C2 mph, E53%10000m1012hPa66%
21-Apr-2024 12:00Light Rain26°C4 mph, NW46%10000m1009hPa71%
21-Apr-2024 15:00Light Rain26°C0 mph, W70%9918m1009hPa74%
21-Apr-2024 18:00Light Rain25°C2 mph, E85%10000m1011hPa74%
21-Apr-2024 21:00Light Rain23°C2 mph, S100%10000m1012hPa83%
22-Apr-2024 00:00Light Rain23°C4 mph, S100%10000m1011hPa80%
22-Apr-2024 03:00Overcast Clouds23°C4 mph, S91%10000m1011hPa81%
22-Apr-2024 06:00Overcast Clouds24°C4 mph, S86%10000m1013hPa78%
22-Apr-2024 09:00Broken Clouds26°C2 mph, NE59%10000m1012hPa67%
22-Apr-2024 12:00Light Rain26°C2 mph, NW41%10000m1009hPa69%
22-Apr-2024 15:00Light Rain26°C2 mph, NE11%10000m1009hPa71%
22-Apr-2024 18:00Light Rain24°C4 mph, S47%10000m1011hPa76%
22-Apr-2024 21:00Light Rain23°C4 mph, S100%10000m1012hPa81%